sensor_id;sensor_type;location;lat;lon;timestamp;P1;durP1;ratioP1;P2;durP2;ratioP2
1366;SDS011;16877;48.810;9.282;2024-03-06T00:02:12;7.77;;;5.80;;
1366;SDS011;16877;48.810;9.282;2024-03-06T00:04:39;8.47;;;5.93;;
1366;SDS011;16877;48.810;9.282;2024-03-06T00:07:07;8.07;;;6.17;;
1366;SDS011;16877;48.810;9.282;2024-03-06T00:09:33;7.13;;;6.20;;
1366;SDS011;16877;48.810;9.282;2024-03-06T00:12:01;7.00;;;6.07;;
1366;SDS011;16877;48.810;9.282;2024-03-06T00:14:27;7.43;;;5.80;;
1366;SDS011;16877;48.810;9.282;2024-03-06T00:16:54;5.63;;;5.10;;
1366;SDS011;16877;48.810;9.282;2024-03-06T00:19:21;6.50;;;5.20;;
1366;SDS011;16877;48.810;9.282;2024-03-06T00:21:48;8.37;;;5.90;;
1366;SDS011;16877;48.810;9.282;2024-03-06T00:24:16;9.97;;;5.87;;
1366;SDS011;16877;48.810;9.282;2024-03-06T00:26:43;6.73;;;5.40;;
1366;SDS011;16877;48.810;9.282;2024-03-06T00:29:12;9.67;;;5.63;;
1366;SDS011;16877;48.810;9.282;2024-03-06T00:31:42;7.20;;;5.43;;
1366;SDS011;16877;48.810;9.282;2024-03-06T00:34:09;7.93;;;5.40;;
1366;SDS011;16877;48.810;9.282;2024-03-06T00:36:36;7.87;;;5.03;;
1366;SDS011;16877;48.810;9.282;2024-03-06T00:39:03;6.57;;;5.13;;
1366;SDS011;16877;48.810;9.282;2024-03-06T00:41:31;8.73;;;6.20;;
1366;SDS011;16877;48.810;9.282;2024-03-06T00:43:59;6.37;;;4.97;;
1366;SDS011;16877;48.810;9.282;2024-03-06T00:46:26;6.47;;;5.00;;
1366;SDS011;16877;48.810;9.282;2024-03-06T00:48:52;6.43;;;4.27;;
1366;SDS011;16877;48.810;9.282;2024-03-06T00:51:19;6.70;;;4.30;;
1366;SDS011;16877;48.810;9.282;2024-03-06T00:53:46;7.70;;;5.37;;
1366;SDS011;16877;48.810;9.282;2024-03-06T00:56:13;6.87;;;4.60;;
1366;SDS011;16877;48.810;9.282;2024-03-06T00:58:41;4.80;;;4.20;;
1366;SDS011;16877;48.810;9.282;2024-03-06T01:01:08;6.73;;;5.00;;
1366;SDS011;16877;48.810;9.282;2024-03-06T01:03:35;8.60;;;5.37;;
1366;SDS011;16877;48.810;9.282;2024-03-06T01:06:03;7.43;;;4.80;;
1366;SDS011;16877;48.810;9.282;2024-03-06T01:08:30;6.50;;;4.60;;
1366;SDS011;16877;48.810;9.282;2024-03-06T01:10:57;6.80;;;4.73;;
1366;SDS011;16877;48.810;9.282;2024-03-06T01:13:24;5.90;;;4.80;;
1366;SDS011;16877;48.810;9.282;2024-03-06T01:15:52;6.97;;;4.90;;
1366;SDS011;16877;48.810;9.282;2024-03-06T01:18:18;8.00;;;5.30;;
1366;SDS011;16877;48.810;9.282;2024-03-06T01:20:45;5.60;;;4.63;;
1366;SDS011;16877;48.810;9.282;2024-03-06T01:23:12;7.80;;;5.67;;
1366;SDS011;16877;48.810;9.282;2024-03-06T01:25:38;7.60;;;5.33;;
1366;SDS011;16877;48.810;9.282;2024-03-06T01:28:05;7.50;;;6.03;;
1366;SDS011;16877;48.810;9.282;2024-03-06T01:30:32;6.03;;;4.30;;
1366;SDS011;16877;48.810;9.282;2024-03-06T01:33:00;7.10;;;5.40;;
1366;SDS011;16877;48.810;9.282;2024-03-06T01:35:27;7.43;;;5.10;;
1366;SDS011;16877;48.810;9.282;2024-03-06T01:37:54;7.30;;;5.70;;
1366;SDS011;16877;48.810;9.282;2024-03-06T01:40:21;9.10;;;6.50;;
1366;SDS011;16877;48.810;9.282;2024-03-06T01:42:47;6.57;;;5.60;;
1366;SDS011;16877;48.810;9.282;2024-03-06T01:45:14;7.73;;;6.93;;
1366;SDS011;16877;48.810;9.282;2024-03-06T01:47:41;7.57;;;6.30;;
1366;SDS011;16877;48.810;9.282;2024-03-06T01:50:09;7.20;;;6.40;;
1366;SDS011;16877;48.810;9.282;2024-03-06T01:52:36;6.50;;;5.80;;
1366;SDS011;16877;48.810;9.282;2024-03-06T01:55:07;6.93;;;6.23;;
1366;SDS011;16877;48.810;9.282;2024-03-06T01:57:36;7.53;;;6.10;;
1366;SDS011;16877;48.810;9.282;2024-03-06T02:00:05;6.67;;;6.00;;
1366;SDS011;16877;48.810;9.282;2024-03-06T02:02:38;7.50;;;5.70;;
1366;SDS011;16877;48.810;9.282;2024-03-06T02:05:06;6.70;;;5.27;;
1366;SDS011;16877;48.810;9.282;2024-03-06T02:07:34;7.07;;;6.33;;
1366;SDS011;16877;48.810;9.282;2024-03-06T02:10:04;7.87;;;6.23;;
1366;SDS011;16877;48.810;9.282;2024-03-06T02:12:32;6.70;;;6.00;;
1366;SDS011;16877;48.810;9.282;2024-03-06T02:14:59;6.07;;;5.40;;
1366;SDS011;16877;48.810;9.282;2024-03-06T02:17:28;7.30;;;6.00;;
1366;SDS011;16877;48.810;9.282;2024-03-06T02:19:55;6.90;;;5.07;;
1366;SDS011;16877;48.810;9.282;2024-03-06T02:22:24;7.33;;;6.20;;
1366;SDS011;16877;48.810;9.282;2024-03-06T02:24:51;6.33;;;5.30;;
1366;SDS011;16877;48.810;9.282;2024-03-06T02:27:17;6.50;;;5.70;;
1366;SDS011;16877;48.810;9.282;2024-03-06T02:29:44;6.90;;;5.40;;
1366;SDS011;16877;48.810;9.282;2024-03-06T02:32:12;7.60;;;5.57;;
1366;SDS011;16877;48.810;9.282;2024-03-06T02:34:38;7.00;;;5.60;;
1366;SDS011;16877;48.810;9.282;2024-03-06T02:37:05;5.60;;;5.00;;
1366;SDS011;16877;48.810;9.282;2024-03-06T02:39:33;6.07;;;4.80;;
1366;SDS011;16877;48.810;9.282;2024-03-06T02:42:00;6.73;;;5.43;;
1366;SDS011;16877;48.810;9.282;2024-03-06T02:44:28;8.17;;;5.30;;
1366;SDS011;16877;48.810;9.282;2024-03-06T02:46:54;5.80;;;5.10;;
1366;SDS011;16877;48.810;9.282;2024-03-06T02:49:21;5.27;;;4.20;;
1366;SDS011;16877;48.810;9.282;2024-03-06T02:51:48;6.47;;;5.40;;
1366;SDS011;16877;48.810;9.282;2024-03-06T02:54:14;5.70;;;4.60;;
1366;SDS011;16877;48.810;9.282;2024-03-06T02:56:42;6.60;;;5.17;;
1366;SDS011;16877;48.810;9.282;2024-03-06T02:59:09;6.93;;;4.63;;
1366;SDS011;16877;48.810;9.282;2024-03-06T03:01:36;5.50;;;4.93;;
1366;SDS011;16877;48.810;9.282;2024-03-06T03:04:03;6.63;;;4.97;;
1366;SDS011;16877;48.810;9.282;2024-03-06T03:06:31;5.70;;;5.20;;
1366;SDS011;16877;48.810;9.282;2024-03-06T03:08:58;6.77;;;5.53;;
1366;SDS011;16877;48.810;9.282;2024-03-06T03:11:25;5.93;;;4.50;;
1366;SDS011;16877;48.810;9.282;2024-03-06T03:13:53;5.77;;;4.80;;
1366;SDS011;16877;48.810;9.282;2024-03-06T03:16:20;4.90;;;4.10;;
1366;SDS011;16877;48.810;9.282;2024-03-06T03:18:47;5.93;;;4.37;;
1366;SDS011;16877;48.810;9.282;2024-03-06T03:21:14;5.67;;;4.50;;
1366;SDS011;16877;48.810;9.282;2024-03-06T03:23:40;4.97;;;3.93;;
1366;SDS011;16877;48.810;9.282;2024-03-06T03:26:07;5.67;;;4.03;;
1366;SDS011;16877;48.810;9.282;2024-03-06T03:28:37;5.60;;;4.47;;
1366;SDS011;16877;48.810;9.282;2024-03-06T03:31:05;6.67;;;4.80;;
1366;SDS011;16877;48.810;9.282;2024-03-06T03:33:33;5.00;;;4.30;;
1366;SDS011;16877;48.810;9.282;2024-03-06T03:36:01;5.50;;;4.70;;
1366;SDS011;16877;48.810;9.282;2024-03-06T03:38:28;5.70;;;4.00;;
1366;SDS011;16877;48.810;9.282;2024-03-06T03:40:55;5.70;;;4.03;;
1366;SDS011;16877;48.810;9.282;2024-03-06T03:43:22;6.77;;;4.03;;
1366;SDS011;16877;48.810;9.282;2024-03-06T03:45:48;5.73;;;3.27;;
1366;SDS011;16877;48.810;9.282;2024-03-06T03:48:16;4.47;;;3.57;;
1366;SDS011;16877;48.810;9.282;2024-03-06T03:50:43;4.53;;;3.47;;
1366;SDS011;16877;48.810;9.282;2024-03-06T03:53:10;5.00;;;4.00;;
1366;SDS011;16877;48.810;9.282;2024-03-06T03:55:37;5.20;;;4.17;;
1366;SDS011;16877;48.810;9.282;2024-03-06T03:58:04;4.63;;;3.67;;
1366;SDS011;16877;48.810;9.282;2024-03-06T04:00:31;5.27;;;4.07;;
1366;SDS011;16877;48.810;9.282;2024-03-06T04:02:58;5.00;;;4.03;;
1366;SDS011;16877;48.810;9.282;2024-03-06T04:05:26;5.00;;;4.07;;
1366;SDS011;16877;48.810;9.282;2024-03-06T04:07:53;5.40;;;3.83;;
1366;SDS011;16877;48.810;9.282;2024-03-06T04:10:20;4.67;;;3.33;;
1366;SDS011;16877;48.810;9.282;2024-03-06T04:12:46;3.80;;;2.77;;
1366;SDS011;16877;48.810;9.282;2024-03-06T04:15:14;4.70;;;3.27;;
1366;SDS011;16877;48.810;9.282;2024-03-06T04:17:41;4.53;;;3.20;;
1366;SDS011;16877;48.810;9.282;2024-03-06T04:20:08;4.70;;;3.73;;
1366;SDS011;16877;48.810;9.282;2024-03-06T04:22:38;4.00;;;3.17;;
1366;SDS011;16877;48.810;9.282;2024-03-06T04:25:05;3.43;;;2.70;;
1366;SDS011;16877;48.810;9.282;2024-03-06T04:27:32;5.47;;;2.70;;
1366;SDS011;16877;48.810;9.282;2024-03-06T04:29:59;3.90;;;2.97;;
1366;SDS011;16877;48.810;9.282;2024-03-06T04:32:27;3.93;;;2.80;;
1366;SDS011;16877;48.810;9.282;2024-03-06T04:34:53;4.53;;;3.00;;
1366;SDS011;16877;48.810;9.282;2024-03-06T04:37:21;4.43;;;3.03;;
1366;SDS011;16877;48.810;9.282;2024-03-06T04:39:49;3.60;;;3.00;;
1366;SDS011;16877;48.810;9.282;2024-03-06T04:42:15;6.00;;;2.83;;
1366;SDS011;16877;48.810;9.282;2024-03-06T04:44:42;4.60;;;3.33;;
1366;SDS011;16877;48.810;9.282;2024-03-06T04:47:09;4.60;;;2.90;;
1366;SDS011;16877;48.810;9.282;2024-03-06T04:49:35;4.13;;;3.07;;
1366;SDS011;16877;48.810;9.282;2024-03-06T04:52:02;3.50;;;2.57;;
1366;SDS011;16877;48.810;9.282;2024-03-06T04:54:29;6.00;;;3.50;;
1366;SDS011;16877;48.810;9.282;2024-03-06T04:56:57;4.67;;;3.20;;
1366;SDS011;16877;48.810;9.282;2024-03-06T04:59:24;4.43;;;3.27;;
1366;SDS011;16877;48.810;9.282;2024-03-06T05:01:51;4.97;;;3.00;;
1366;SDS011;16877;48.810;9.282;2024-03-06T05:04:18;3.70;;;2.83;;
1366;SDS011;16877;48.810;9.282;2024-03-06T05:06:45;3.27;;;2.67;;
1366;SDS011;16877;48.810;9.282;2024-03-06T05:09:12;3.80;;;2.50;;
1366;SDS011;16877;48.810;9.282;2024-03-06T05:11:40;7.03;;;3.40;;
1366;SDS011;16877;48.810;9.282;2024-03-06T05:14:08;3.17;;;2.33;;
1366;SDS011;16877;48.810;9.282;2024-03-06T05:16:34;4.73;;;2.90;;
1366;SDS011;16877;48.810;9.282;2024-03-06T05:19:01;3.83;;;2.57;;
1366;SDS011;16877;48.810;9.282;2024-03-06T05:21:28;3.10;;;2.30;;
1366;SDS011;16877;48.810;9.282;2024-03-06T05:23:54;4.40;;;2.50;;
1366;SDS011;16877;48.810;9.282;2024-03-06T05:26:21;5.73;;;2.77;;
1366;SDS011;16877;48.810;9.282;2024-03-06T05:28:48;3.40;;;2.80;;
1366;SDS011;16877;48.810;9.282;2024-03-06T05:31:19;3.43;;;2.83;;
1366;SDS011;16877;48.810;9.282;2024-03-06T05:33:47;4.30;;;2.90;;
1366;SDS011;16877;48.810;9.282;2024-03-06T05:36:14;5.67;;;3.30;;
1366;SDS011;16877;48.810;9.282;2024-03-06T05:38:42;3.60;;;2.60;;
1366;SDS011;16877;48.810;9.282;2024-03-06T05:41:09;5.13;;;3.03;;
1366;SDS011;16877;48.810;9.282;2024-03-06T05:43:35;4.20;;;2.97;;
1366;SDS011;16877;48.810;9.282;2024-03-06T05:46:02;4.00;;;3.50;;
1366;SDS011;16877;48.810;9.282;2024-03-06T05:48:30;3.47;;;2.80;;
1366;SDS011;16877;48.810;9.282;2024-03-06T05:50:58;4.30;;;2.77;;
1366;SDS011;16877;48.810;9.282;2024-03-06T05:53:25;3.50;;;2.87;;
1366;SDS011;16877;48.810;9.282;2024-03-06T05:55:51;4.70;;;3.13;;
1366;SDS011;16877;48.810;9.282;2024-03-06T05:58:19;3.50;;;2.47;;
1366;SDS011;16877;48.810;9.282;2024-03-06T06:00:46;5.00;;;3.27;;
1366;SDS011;16877;48.810;9.282;2024-03-06T06:03:13;3.97;;;2.57;;
1366;SDS011;16877;48.810;9.282;2024-03-06T06:05:41;4.40;;;2.83;;
1366;SDS011;16877;48.810;9.282;2024-03-06T06:08:08;3.90;;;2.97;;
1366;SDS011;16877;48.810;9.282;2024-03-06T06:10:35;6.30;;;3.70;;
1366;SDS011;16877;48.810;9.282;2024-03-06T06:13:01;4.60;;;3.20;;
1366;SDS011;16877;48.810;9.282;2024-03-06T06:15:29;5.10;;;3.57;;
1366;SDS011;16877;48.810;9.282;2024-03-06T06:17:56;4.27;;;3.30;;
1366;SDS011;16877;48.810;9.282;2024-03-06T06:20:23;4.93;;;3.40;;
1366;SDS011;16877;48.810;9.282;2024-03-06T06:22:51;4.23;;;2.73;;
1366;SDS011;16877;48.810;9.282;2024-03-06T06:25:18;4.50;;;3.33;;
1366;SDS011;16877;48.810;9.282;2024-03-06T06:27:45;6.57;;;3.33;;
1366;SDS011;16877;48.810;9.282;2024-03-06T06:30:13;4.50;;;3.07;;
1366;SDS011;16877;48.810;9.282;2024-03-06T06:32:40;7.50;;;4.33;;
1366;SDS011;16877;48.810;9.282;2024-03-06T06:35:08;6.83;;;3.93;;
1366;SDS011;16877;48.810;9.282;2024-03-06T06:37:36;4.40;;;3.10;;
1366;SDS011;16877;48.810;9.282;2024-03-06T06:40:05;7.17;;;3.33;;
1366;SDS011;16877;48.810;9.282;2024-03-06T06:42:33;5.07;;;3.43;;
1366;SDS011;16877;48.810;9.282;2024-03-06T06:45:00;4.20;;;3.30;;
1366;SDS011;16877;48.810;9.282;2024-03-06T06:47:27;3.60;;;3.00;;
1366;SDS011;16877;48.810;9.282;2024-03-06T06:49:54;7.70;;;3.40;;
1366;SDS011;16877;48.810;9.282;2024-03-06T06:52:21;4.50;;;3.20;;
1366;SDS011;16877;48.810;9.282;2024-03-06T06:54:47;6.47;;;3.30;;
1366;SDS011;16877;48.810;9.282;2024-03-06T06:57:17;3.70;;;3.17;;
1366;SDS011;16877;48.810;9.282;2024-03-06T06:59:44;5.27;;;3.30;;
1366;SDS011;16877;48.810;9.282;2024-03-06T07:02:11;4.70;;;3.23;;
1366;SDS011;16877;48.810;9.282;2024-03-06T07:04:38;4.63;;;3.00;;
1366;SDS011;16877;48.810;9.282;2024-03-06T07:07:05;3.73;;;2.93;;
1366;SDS011;16877;48.810;9.282;2024-03-06T07:09:32;4.40;;;3.47;;
1366;SDS011;16877;48.810;9.282;2024-03-06T07:11:59;5.10;;;3.30;;
1366;SDS011;16877;48.810;9.282;2024-03-06T07:14:27;5.23;;;3.17;;
1366;SDS011;16877;48.810;9.282;2024-03-06T07:16:53;5.37;;;3.60;;
1366;SDS011;16877;48.810;9.282;2024-03-06T07:19:20;3.60;;;2.80;;
1366;SDS011;16877;48.810;9.282;2024-03-06T07:21:47;6.47;;;3.70;;
1366;SDS011;16877;48.810;9.282;2024-03-06T07:24:13;7.10;;;3.90;;
1366;SDS011;16877;48.810;9.282;2024-03-06T07:26:40;3.80;;;2.70;;
1366;SDS011;16877;48.810;9.282;2024-03-06T07:29:07;5.07;;;3.43;;
1366;SDS011;16877;48.810;9.282;2024-03-06T07:31:41;5.00;;;3.07;;
1366;SDS011;16877;48.810;9.282;2024-03-06T07:34:08;4.63;;;2.70;;
1366;SDS011;16877;48.810;9.282;2024-03-06T07:36:34;4.00;;;2.70;;
1366;SDS011;16877;48.810;9.282;2024-03-06T07:39:01;4.47;;;3.00;;
1366;SDS011;16877;48.810;9.282;2024-03-06T07:41:29;4.43;;;3.10;;
1366;SDS011;16877;48.810;9.282;2024-03-06T07:43:57;5.20;;;3.60;;
1366;SDS011;16877;48.810;9.282;2024-03-06T07:46:24;3.83;;;2.97;;
1366;SDS011;16877;48.810;9.282;2024-03-06T07:48:52;3.97;;;2.87;;
1366;SDS011;16877;48.810;9.282;2024-03-06T07:51:20;4.40;;;2.90;;
1366;SDS011;16877;48.810;9.282;2024-03-06T07:53:46;3.90;;;2.97;;
1366;SDS011;16877;48.810;9.282;2024-03-06T07:56:15;4.50;;;3.07;;
1366;SDS011;16877;48.810;9.282;2024-03-06T07:58:42;4.20;;;2.93;;
1366;SDS011;16877;48.810;9.282;2024-03-06T08:01:09;4.67;;;3.57;;
1366;SDS011;16877;48.810;9.282;2024-03-06T08:03:36;4.90;;;3.23;;
1366;SDS011;16877;48.810;9.282;2024-03-06T08:06:06;4.80;;;3.27;;
1366;SDS011;16877;48.810;9.282;2024-03-06T08:08:33;4.93;;;3.20;;
1366;SDS011;16877;48.810;9.282;2024-03-06T08:11:00;4.53;;;2.93;;
1366;SDS011;16877;48.810;9.282;2024-03-06T08:13:26;5.70;;;2.93;;
1366;SDS011;16877;48.810;9.282;2024-03-06T08:15:54;5.17;;;3.60;;
1366;SDS011;16877;48.810;9.282;2024-03-06T08:18:21;4.93;;;3.20;;
1366;SDS011;16877;48.810;9.282;2024-03-06T08:20:47;3.60;;;3.17;;
1366;SDS011;16877;48.810;9.282;2024-03-06T08:23:15;5.47;;;3.33;;
1366;SDS011;16877;48.810;9.282;2024-03-06T08:25:42;4.13;;;3.27;;
1366;SDS011;16877;48.810;9.282;2024-03-06T08:28:09;3.80;;;3.10;;
1366;SDS011;16877;48.810;9.282;2024-03-06T08:30:35;5.17;;;3.83;;
1366;SDS011;16877;48.810;9.282;2024-03-06T08:33:02;5.60;;;3.73;;
1366;SDS011;16877;48.810;9.282;2024-03-06T08:35:29;4.63;;;3.50;;
1366;SDS011;16877;48.810;9.282;2024-03-06T08:37:56;8.17;;;3.83;;
1366;SDS011;16877;48.810;9.282;2024-03-06T08:40:24;6.60;;;4.13;;
1366;SDS011;16877;48.810;9.282;2024-03-06T08:42:53;5.37;;;3.60;;
1366;SDS011;16877;48.810;9.282;2024-03-06T08:45:20;3.80;;;3.23;;
1366;SDS011;16877;48.810;9.282;2024-03-06T08:47:48;5.30;;;4.00;;
1366;SDS011;16877;48.810;9.282;2024-03-06T08:50:15;5.40;;;4.03;;
1366;SDS011;16877;48.810;9.282;2024-03-06T08:52:42;4.07;;;3.03;;
1366;SDS011;16877;48.810;9.282;2024-03-06T08:55:09;5.10;;;4.07;;
1366;SDS011;16877;48.810;9.282;2024-03-06T08:57:38;4.07;;;3.40;;
1366;SDS011;16877;48.810;9.282;2024-03-06T09:00:05;14.50;;;3.50;;
1366;SDS011;16877;48.810;9.282;2024-03-06T09:02:35;3.77;;;3.30;;
1366;SDS011;16877;48.810;9.282;2024-03-06T09:05:03;5.90;;;4.10;;
1366;SDS011;16877;48.810;9.282;2024-03-06T09:07:30;4.50;;;3.80;;
1366;SDS011;16877;48.810;9.282;2024-03-06T09:10:02;6.77;;;3.93;;
1366;SDS011;16877;48.810;9.282;2024-03-06T09:12:30;5.93;;;4.10;;
1366;SDS011;16877;48.810;9.282;2024-03-06T09:14:58;4.77;;;3.53;;
1366;SDS011;16877;48.810;9.282;2024-03-06T09:17:25;6.10;;;3.60;;
1366;SDS011;16877;48.810;9.282;2024-03-06T09:19:52;4.90;;;3.77;;
1366;SDS011;16877;48.810;9.282;2024-03-06T09:22:19;5.57;;;4.10;;
1366;SDS011;16877;48.810;9.282;2024-03-06T09:24:46;6.40;;;3.90;;
1366;SDS011;16877;48.810;9.282;2024-03-06T09:27:13;5.93;;;3.70;;
1366;SDS011;16877;48.810;9.282;2024-03-06T09:29:40;4.90;;;3.90;;
1366;SDS011;16877;48.810;9.282;2024-03-06T09:32:09;4.83;;;4.10;;
1366;SDS011;16877;48.810;9.282;2024-03-06T09:34:38;6.10;;;4.33;;
1366;SDS011;16877;48.810;9.282;2024-03-06T09:37:04;4.70;;;4.30;;
1366;SDS011;16877;48.810;9.282;2024-03-06T09:39:31;4.77;;;4.27;;
1366;SDS011;16877;48.810;9.282;2024-03-06T09:41:59;4.33;;;3.40;;
1366;SDS011;16877;48.810;9.282;2024-03-06T09:44:26;6.33;;;4.53;;
1366;SDS011;16877;48.810;9.282;2024-03-06T09:46:54;4.67;;;3.70;;
1366;SDS011;16877;48.810;9.282;2024-03-06T09:49:23;5.20;;;4.17;;
1366;SDS011;16877;48.810;9.282;2024-03-06T09:51:50;4.33;;;3.80;;
1366;SDS011;16877;48.810;9.282;2024-03-06T09:54:20;4.90;;;3.63;;
1366;SDS011;16877;48.810;9.282;2024-03-06T09:56:49;6.00;;;4.63;;
1366;SDS011;16877;48.810;9.282;2024-03-06T09:59:16;5.60;;;3.90;;
1366;SDS011;16877;48.810;9.282;2024-03-06T10:01:45;4.30;;;3.50;;
1366;SDS011;16877;48.810;9.282;2024-03-06T10:04:19;7.57;;;4.40;;
1366;SDS011;16877;48.810;9.282;2024-03-06T10:06:47;3.17;;;2.33;;
1366;SDS011;16877;48.810;9.282;2024-03-06T10:09:16;4.73;;;2.30;;
1366;SDS011;16877;48.810;9.282;2024-03-06T10:11:43;4.30;;;2.20;;
1366;SDS011;16877;48.810;9.282;2024-03-06T10:14:10;5.03;;;2.47;;
1366;SDS011;16877;48.810;9.282;2024-03-06T10:16:37;4.63;;;2.10;;
1366;SDS011;16877;48.810;9.282;2024-03-06T10:19:14;3.50;;;2.33;;
1366;SDS011;16877;48.810;9.282;2024-03-06T10:21:43;3.77;;;2.30;;
1366;SDS011;16877;48.810;9.282;2024-03-06T10:24:12;3.33;;;2.27;;
1366;SDS011;16877;48.810;9.282;2024-03-06T10:26:38;4.83;;;2.13;;
1366;SDS011;16877;48.810;9.282;2024-03-06T10:29:05;5.50;;;2.30;;
1366;SDS011;16877;48.810;9.282;2024-03-06T10:31:32;3.90;;;2.20;;
1366;SDS011;16877;48.810;9.282;2024-03-06T10:33:59;3.93;;;2.00;;
1366;SDS011;16877;48.810;9.282;2024-03-06T10:36:26;4.40;;;2.67;;
1366;SDS011;16877;48.810;9.282;2024-03-06T10:38:52;5.30;;;2.57;;
1366;SDS011;16877;48.810;9.282;2024-03-06T10:41:24;3.37;;;2.20;;
1366;SDS011;16877;48.810;9.282;2024-03-06T10:43:53;4.50;;;2.87;;
1366;SDS011;16877;48.810;9.282;2024-03-06T10:46:21;4.63;;;2.40;;
1366;SDS011;16877;48.810;9.282;2024-03-06T10:48:49;4.50;;;3.77;;
1366;SDS011;16877;48.810;9.282;2024-03-06T10:51:16;5.20;;;4.00;;
1366;SDS011;16877;48.810;9.282;2024-03-06T10:53:44;4.87;;;4.03;;
1366;SDS011;16877;48.810;9.282;2024-03-06T10:56:11;4.93;;;3.70;;
1366;SDS011;16877;48.810;9.282;2024-03-06T10:58:40;5.53;;;4.93;;
1366;SDS011;16877;48.810;9.282;2024-03-06T11:01:08;4.70;;;4.20;;
1366;SDS011;16877;48.810;9.282;2024-03-06T11:03:36;4.93;;;4.37;;
1366;SDS011;16877;48.810;9.282;2024-03-06T11:06:03;6.57;;;5.63;;
1366;SDS011;16877;48.810;9.282;2024-03-06T11:08:32;5.90;;;5.10;;
1366;SDS011;16877;48.810;9.282;2024-03-06T11:13:48;7.20;;;6.30;;
1366;SDS011;16877;48.810;9.282;2024-03-06T11:16:15;8.00;;;6.27;;
1366;SDS011;16877;48.810;9.282;2024-03-06T11:18:42;6.77;;;6.07;;
1366;SDS011;16877;48.810;9.282;2024-03-06T11:21:29;8.10;;;6.23;;
1366;SDS011;16877;48.810;9.282;2024-03-06T11:24:12;7.77;;;5.63;;
1366;SDS011;16877;48.810;9.282;2024-03-06T11:26:42;6.73;;;5.80;;
1366;SDS011;16877;48.810;9.282;2024-03-06T11:29:10;7.90;;;6.80;;
1366;SDS011;16877;48.810;9.282;2024-03-06T11:31:37;7.30;;;6.57;;
1366;SDS011;16877;48.810;9.282;2024-03-06T11:34:04;7.17;;;6.40;;
1366;SDS011;16877;48.810;9.282;2024-03-06T11:36:33;10.17;;;9.00;;
1366;SDS011;16877;48.810;9.282;2024-03-06T11:39:02;8.00;;;7.27;;
1366;SDS011;16877;48.810;9.282;2024-03-06T11:41:31;8.87;;;7.97;;
1366;SDS011;16877;48.810;9.282;2024-03-06T11:43:59;9.80;;;8.80;;
1366;SDS011;16877;48.810;9.282;2024-03-06T11:46:41;8.10;;;7.30;;
1366;SDS011;16877;48.810;9.282;2024-03-06T11:49:14;8.50;;;7.70;;
1366;SDS011;16877;48.810;9.282;2024-03-06T11:51:42;10.27;;;8.30;;
1366;SDS011;16877;48.810;9.282;2024-03-06T11:54:11;8.67;;;7.87;;
1366;SDS011;16877;48.810;9.282;2024-03-06T11:56:38;7.60;;;6.90;;
1366;SDS011;16877;48.810;9.282;2024-03-06T11:59:05;8.13;;;7.33;;
1366;SDS011;16877;48.810;9.282;2024-03-06T12:01:32;9.67;;;8.67;;
1366;SDS011;16877;48.810;9.282;2024-03-06T12:04:01;9.43;;;8.53;;
1366;SDS011;16877;48.810;9.282;2024-03-06T12:06:28;10.00;;;9.00;;
1366;SDS011;16877;48.810;9.282;2024-03-06T12:08:55;11.33;;;10.07;;
1366;SDS011;16877;48.810;9.282;2024-03-06T12:11:22;9.33;;;8.27;;
1366;SDS011;16877;48.810;9.282;2024-03-06T12:13:50;8.80;;;8.00;;
1366;SDS011;16877;48.810;9.282;2024-03-06T12:16:17;9.43;;;8.37;;
1366;SDS011;16877;48.810;9.282;2024-03-06T12:18:44;10.20;;;9.20;;
1366;SDS011;16877;48.810;9.282;2024-03-06T12:21:12;10.60;;;9.50;;
1366;SDS011;16877;48.810;9.282;2024-03-06T12:23:39;9.80;;;8.90;;
1366;SDS011;16877;48.810;9.282;2024-03-06T12:26:07;4.80;;;2.83;;
1366;SDS011;16877;48.810;9.282;2024-03-06T12:28:35;5.07;;;2.97;;
1366;SDS011;16877;48.810;9.282;2024-03-06T12:31:02;4.67;;;3.10;;
1366;SDS011;16877;48.810;9.282;2024-03-06T12:33:29;4.77;;;2.60;;
1366;SDS011;16877;48.810;9.282;2024-03-06T12:36:03;4.60;;;2.70;;
1366;SDS011;16877;48.810;9.282;2024-03-06T12:38:33;4.50;;;3.00;;
1366;SDS011;16877;48.810;9.282;2024-03-06T12:40:59;4.13;;;3.73;;
1366;SDS011;16877;48.810;9.282;2024-03-06T12:43:26;6.23;;;5.33;;
1366;SDS011;16877;48.810;9.282;2024-03-06T12:45:54;7.10;;;5.90;;
1366;SDS011;16877;48.810;9.282;2024-03-06T12:48:22;7.43;;;6.63;;
1366;SDS011;16877;48.810;9.282;2024-03-06T12:50:49;7.57;;;6.77;;
1366;SDS011;16877;48.810;9.282;2024-03-06T12:53:19;8.43;;;7.70;;
1366;SDS011;16877;48.810;9.282;2024-03-06T12:55:48;8.67;;;7.73;;
1366;SDS011;16877;48.810;9.282;2024-03-06T12:58:15;9.33;;;8.43;;
1366;SDS011;16877;48.810;9.282;2024-03-06T13:00:42;10.00;;;9.00;;
1366;SDS011;16877;48.810;9.282;2024-03-06T13:03:08;9.20;;;8.30;;
1366;SDS011;16877;48.810;9.282;2024-03-06T13:05:35;9.10;;;8.20;;
1366;SDS011;16877;48.810;9.282;2024-03-06T13:08:03;9.47;;;8.60;;
1366;SDS011;16877;48.810;9.282;2024-03-06T13:10:30;9.67;;;8.27;;
1366;SDS011;16877;48.810;9.282;2024-03-06T13:12:58;9.20;;;8.30;;
1366;SDS011;16877;48.810;9.282;2024-03-06T13:15:25;10.03;;;8.97;;
1366;SDS011;16877;48.810;9.282;2024-03-06T13:17:52;10.30;;;9.30;;
1366;SDS011;16877;48.810;9.282;2024-03-06T13:20:19;9.90;;;8.90;;
1366;SDS011;16877;48.810;9.282;2024-03-06T13:22:46;10.67;;;9.60;;
1366;SDS011;16877;48.810;9.282;2024-03-06T13:25:13;10.70;;;9.70;;
1366;SDS011;16877;48.810;9.282;2024-03-06T13:27:39;10.47;;;9.47;;
1366;SDS011;16877;48.810;9.282;2024-03-06T13:30:09;9.97;;;9.07;;
1366;SDS011;16877;48.810;9.282;2024-03-06T13:32:37;10.40;;;9.07;;
1366;SDS011;16877;48.810;9.282;2024-03-06T13:35:04;10.70;;;9.70;;
1366;SDS011;16877;48.810;9.282;2024-03-06T13:37:34;11.07;;;10.00;;
1366;SDS011;16877;48.810;9.282;2024-03-06T13:40:00;12.00;;;10.80;;
1366;SDS011;16877;48.810;9.282;2024-03-06T13:42:28;13.37;;;12.03;;
1366;SDS011;16877;48.810;9.282;2024-03-06T13:44:54;11.90;;;10.80;;
1366;SDS011;16877;48.810;9.282;2024-03-06T13:47:23;12.10;;;11.00;;
1366;SDS011;16877;48.810;9.282;2024-03-06T13:49:51;13.10;;;12.00;;
1366;SDS011;16877;48.810;9.282;2024-03-06T13:52:18;13.60;;;12.37;;
1366;SDS011;16877;48.810;9.282;2024-03-06T13:54:46;11.60;;;10.60;;
1366;SDS011;16877;48.810;9.282;2024-03-06T13:57:14;13.33;;;12.13;;
1366;SDS011;16877;48.810;9.282;2024-03-06T13:59:41;12.20;;;11.10;;
1366;SDS011;16877;48.810;9.282;2024-03-06T14:02:08;12.13;;;11.03;;
1366;SDS011;16877;48.810;9.282;2024-03-06T14:04:36;12.37;;;11.20;;
1366;SDS011;16877;48.810;9.282;2024-03-06T14:07:03;13.67;;;12.30;;
1366;SDS011;16877;48.810;9.282;2024-03-06T14:09:30;11.63;;;10.53;;
1366;SDS011;16877;48.810;9.282;2024-03-06T14:11:57;14.17;;;12.87;;
1366;SDS011;16877;48.810;9.282;2024-03-06T14:14:24;13.60;;;12.30;;
1366;SDS011;16877;48.810;9.282;2024-03-06T14:16:51;12.27;;;11.13;;
1366;SDS011;16877;48.810;9.282;2024-03-06T14:19:18;13.20;;;12.00;;
1366;SDS011;16877;48.810;9.282;2024-03-06T14:21:47;13.33;;;11.93;;
1366;SDS011;16877;48.810;9.282;2024-03-06T14:24:14;13.30;;;12.10;;
1366;SDS011;16877;48.810;9.282;2024-03-06T14:26:41;13.80;;;12.53;;
1366;SDS011;16877;48.810;9.282;2024-03-06T14:29:08;12.40;;;11.20;;
1366;SDS011;16877;48.810;9.282;2024-03-06T14:31:34;12.00;;;11.00;;
1366;SDS011;16877;48.810;9.282;2024-03-06T14:34:02;13.83;;;12.50;;
1366;SDS011;16877;48.810;9.282;2024-03-06T14:36:28;15.70;;;14.20;;
1366;SDS011;16877;48.810;9.282;2024-03-06T14:38:57;12.43;;;11.40;;
1366;SDS011;16877;48.810;9.282;2024-03-06T14:41:23;13.83;;;12.63;;
1366;SDS011;16877;48.810;9.282;2024-03-06T14:43:50;13.37;;;12.17;;
1366;SDS011;16877;48.810;9.282;2024-03-06T14:46:17;12.70;;;11.60;;
1366;SDS011;16877;48.810;9.282;2024-03-06T14:48:44;12.37;;;11.17;;
1366;SDS011;16877;48.810;9.282;2024-03-06T14:51:11;12.30;;;11.03;;
1366;SDS011;16877;48.810;9.282;2024-03-06T14:53:38;11.50;;;10.50;;
1366;SDS011;16877;48.810;9.282;2024-03-06T14:56:05;11.93;;;10.83;;
1366;SDS011;16877;48.810;9.282;2024-03-06T14:58:32;12.73;;;11.53;;
1366;SDS011;16877;48.810;9.282;2024-03-06T15:00:59;12.33;;;11.13;;
1366;SDS011;16877;48.810;9.282;2024-03-06T15:03:26;11.17;;;10.17;;